createdAt,value
2018-12-06T00:00:21.917Z,1020.30
2018-12-06T00:01:21.937Z,1020.32
2018-12-06T00:02:21.960Z,1020.29
2018-12-06T00:03:22.062Z,1020.30
2018-12-06T00:04:22.009Z,1020.28
2018-12-06T00:05:22.021Z,1020.26
2018-12-06T00:06:22.040Z,1020.22
2018-12-06T00:07:22.062Z,1020.21
2018-12-06T00:08:22.083Z,1020.22
2018-12-06T00:09:22.110Z,1020.21
2018-12-06T00:10:22.126Z,1020.19
2018-12-06T00:11:22.247Z,1020.22
2018-12-06T00:12:22.166Z,1020.22
2018-12-06T00:13:22.187Z,1020.23
2018-12-06T00:14:22.207Z,1020.18
2018-12-06T00:15:22.230Z,1020.20
2018-12-06T00:16:22.253Z,1020.23
2018-12-06T00:17:22.271Z,1020.19
2018-12-06T00:18:22.294Z,1020.22
2018-12-06T00:19:22.390Z,1020.22
2018-12-06T00:20:22.335Z,1020.20
2018-12-06T00:21:22.355Z,1020.20
2018-12-06T00:22:22.374Z,1020.17
2018-12-06T00:23:22.395Z,1020.13
2018-12-06T00:24:22.414Z,1020.17
2018-12-06T00:25:22.438Z,1020.16
2018-12-06T00:26:22.461Z,1020.21
2018-12-06T00:27:22.479Z,1020.22
2018-12-06T00:28:22.495Z,1020.29
2018-12-06T00:29:22.518Z,1020.32
2018-12-06T00:30:22.538Z,1020.34
2018-12-06T00:31:22.559Z,1020.33
2018-12-06T00:32:22.579Z,1020.35
2018-12-06T00:33:22.598Z,1020.33
2018-12-06T00:34:22.622Z,1020.33
2018-12-06T00:35:22.639Z,1020.34
2018-12-06T00:36:22.664Z,1020.36
2018-12-06T00:37:22.680Z,1020.35
2018-12-06T00:38:22.700Z,1020.32
2018-12-06T00:39:22.721Z,1020.34
2018-12-06T00:40:22.743Z,1020.32
2018-12-06T00:41:22.764Z,1020.34
2018-12-06T00:42:22.784Z,1020.34
2018-12-06T00:43:22.809Z,1020.39
2018-12-06T00:44:22.829Z,1020.38
2018-12-06T00:45:22.849Z,1020.35
2018-12-06T00:46:22.869Z,1020.34
2018-12-06T00:47:22.891Z,1020.34
2018-12-06T00:48:22.908Z,1020.33
2018-12-06T00:49:22.933Z,1020.31
2018-12-06T00:50:22.949Z,1020.36
2018-12-06T00:51:22.970Z,1020.34
2018-12-06T00:52:22.991Z,1020.31
2018-12-06T00:53:23.013Z,1020.31
2018-12-06T00:54:23.033Z,1020.31
2018-12-06T00:55:23.055Z,1020.32
2018-12-06T00:56:23.075Z,1020.30
2018-12-06T00:57:23.095Z,1020.28
2018-12-06T00:58:23.117Z,1020.29
2018-12-06T00:59:23.137Z,1020.30
2018-12-06T01:00:23.158Z,1020.30
2018-12-06T01:01:23.182Z,1020.31
2018-12-06T01:02:23.199Z,1020.32
2018-12-06T01:03:23.222Z,1020.32
2018-12-06T01:04:23.241Z,1020.31
2018-12-06T01:05:23.266Z,1020.35
2018-12-06T01:06:23.282Z,1020.36
2018-12-06T01:07:23.308Z,1020.34
2018-12-06T01:08:23.326Z,1020.31
2018-12-06T01:09:23.350Z,1020.34
2018-12-06T01:10:23.376Z,1020.33
2018-12-06T01:11:23.387Z,1020.34
2018-12-06T01:12:23.414Z,1020.37
2018-12-06T01:13:23.431Z,1020.39
2018-12-06T01:14:23.450Z,1020.39
2018-12-06T01:15:23.471Z,1020.37
2018-12-06T01:16:23.495Z,1020.43
2018-12-06T01:17:23.515Z,1020.37
2018-12-06T01:18:23.541Z,1020.38
2018-12-06T01:19:23.556Z,1020.42
2018-12-06T01:20:23.578Z,1020.41
2018-12-06T01:21:23.600Z,1020.39
2018-12-06T01:22:23.625Z,1020.40
2018-12-06T01:23:23.641Z,1020.42
2018-12-06T01:24:23.663Z,1020.38
2018-12-06T01:25:23.684Z,1020.39
2018-12-06T01:26:23.709Z,1020.38
2018-12-06T01:27:23.726Z,1020.36
2018-12-06T01:28:23.751Z,1020.33
2018-12-06T01:29:23.772Z,1020.34
2018-12-06T01:30:23.792Z,1020.36
2018-12-06T01:31:23.811Z,1020.34
2018-12-06T01:32:23.832Z,1020.33
2018-12-06T01:33:23.854Z,1020.32
2018-12-06T01:34:23.873Z,1020.30
2018-12-06T01:35:23.892Z,1020.36
2018-12-06T01:36:23.917Z,1020.37
2018-12-06T01:37:23.937Z,1020.34
2018-12-06T01:38:23.958Z,1020.36
2018-12-06T01:39:23.981Z,1020.38
2018-12-06T01:40:23.999Z,1020.37
2018-12-06T01:41:24.019Z,1020.33
2018-12-06T01:42:24.041Z,1020.38
2018-12-06T01:43:24.063Z,1020.38
2018-12-06T01:44:24.082Z,1020.35
2018-12-06T01:45:24.104Z,1020.36
2018-12-06T01:46:24.123Z,1020.33
2018-12-06T01:47:24.152Z,1020.35
2018-12-06T01:48:24.169Z,1020.33
2018-12-06T01:49:24.190Z,1020.32
2018-12-06T01:50:24.209Z,1020.31
2018-12-06T01:51:24.232Z,1020.33
2018-12-06T01:52:24.254Z,1020.32
2018-12-06T01:53:24.274Z,1020.29
2018-12-06T01:54:24.335Z,1020.28
2018-12-06T01:55:24.316Z,1020.27
2018-12-06T01:56:24.336Z,1020.26
2018-12-06T01:57:24.360Z,1020.23
2018-12-06T01:58:24.377Z,1020.27
2018-12-06T01:59:24.399Z,1020.26
2018-12-06T02:00:24.432Z,1020.28
2018-12-06T02:01:24.443Z,1020.28
2018-12-06T02:02:24.466Z,1020.23
2018-12-06T02:03:24.485Z,1020.25
2018-12-06T02:04:24.508Z,1020.18
2018-12-06T02:05:24.526Z,1020.19
2018-12-06T02:06:24.554Z,1020.20
2018-12-06T02:07:24.569Z,1020.15
2018-12-06T02:08:24.593Z,1020.21
2018-12-06T02:09:24.618Z,1020.21
2018-12-06T02:10:24.631Z,1020.18
2018-12-06T02:11:24.653Z,1020.16
2018-12-06T02:12:24.675Z,1020.14
2018-12-06T02:13:24.696Z,1020.15
2018-12-06T02:14:24.718Z,1020.11
2018-12-06T02:15:24.742Z,1020.16
2018-12-06T02:16:24.762Z,1020.18
2018-12-06T02:17:24.790Z,1020.15
2018-12-06T02:18:24.801Z,1020.17
2018-12-06T02:19:24.823Z,1020.14
2018-12-06T02:20:24.848Z,1020.12
2018-12-06T02:21:24.868Z,1020.08
2018-12-06T02:22:24.887Z,1020.10
2018-12-06T02:23:24.909Z,1020.11
2018-12-06T02:24:24.933Z,1020.13
2018-12-06T02:25:24.951Z,1020.14
2018-12-06T02:26:24.979Z,1020.15
2018-12-06T02:27:24.996Z,1020.16
2018-12-06T02:28:25.018Z,1020.09
2018-12-06T02:29:25.039Z,1020.06
2018-12-06T02:30:25.061Z,1020.10
2018-12-06T02:31:25.087Z,1020.07
2018-12-06T02:32:25.105Z,1020.05
2018-12-06T02:33:25.123Z,1020.01
2018-12-06T02:34:25.143Z,1020.01
2018-12-06T02:35:25.164Z,1020.02
2018-12-06T02:36:25.187Z,1020.04
2018-12-06T02:37:25.210Z,1020.00
2018-12-06T02:38:25.231Z,1020.06
2018-12-06T02:39:25.252Z,1020.04
2018-12-06T02:40:25.273Z,1020.01
2018-12-06T02:41:25.292Z,1020.03
2018-12-06T02:42:25.312Z,1020.04
2018-12-06T02:43:25.337Z,1019.99
2018-12-06T02:44:25.357Z,1020.00
2018-12-06T02:45:25.378Z,1020.01
2018-12-06T02:46:25.398Z,1019.98
2018-12-06T02:47:25.422Z,1019.93
2018-12-06T02:48:25.442Z,1019.91
2018-12-06T02:49:25.462Z,1019.91
2018-12-06T02:50:25.485Z,1019.93
2018-12-06T02:51:25.505Z,1019.91
2018-12-06T02:52:25.530Z,1019.91
2018-12-06T02:53:25.549Z,1019.89
2018-12-06T02:54:25.569Z,1019.87
2018-12-06T02:55:25.594Z,1019.86
2018-12-06T02:56:25.616Z,1019.88
2018-12-06T02:57:25.633Z,1019.94
2018-12-06T02:58:25.655Z,1019.92
2018-12-06T02:59:25.675Z,1019.90
2018-12-06T03:00:25.697Z,1019.88
2018-12-06T03:01:25.722Z,1019.90
2018-12-06T03:02:25.740Z,1019.91
2018-12-06T03:03:25.766Z,1019.95
2018-12-06T03:04:25.783Z,1019.92
2018-12-06T03:05:25.803Z,1019.95
2018-12-06T03:06:25.826Z,1019.90
2018-12-06T03:07:25.846Z,1019.89
2018-12-06T03:08:25.867Z,1019.92
2018-12-06T03:09:25.892Z,1019.90
2018-12-06T03:10:25.912Z,1019.86
2018-12-06T03:11:25.933Z,1019.90
2018-12-06T03:12:25.954Z,1019.87
2018-12-06T03:13:25.975Z,1019.90
2018-12-06T03:14:25.995Z,1019.93
2018-12-06T03:15:26.021Z,1019.90
2018-12-06T03:16:26.036Z,1019.90
2018-12-06T03:17:26.066Z,1019.89
2018-12-06T03:18:26.082Z,1019.90
2018-12-06T03:19:26.101Z,1019.88
2018-12-06T03:20:26.124Z,1019.88
2018-12-06T03:21:26.145Z,1019.89
2018-12-06T03:22:26.168Z,1019.89
2018-12-06T03:23:26.187Z,1019.94
2018-12-06T03:24:26.213Z,1019.93
2018-12-06T03:25:26.233Z,1019.95
2018-12-06T03:26:26.264Z,1019.95
2018-12-06T03:27:26.274Z,1019.92
2018-12-06T03:28:26.295Z,1019.96
2018-12-06T03:29:26.319Z,1019.95
2018-12-06T03:30:26.337Z,1019.99
2018-12-06T03:31:26.360Z,1019.93
2018-12-06T03:32:26.380Z,1019.86
2018-12-06T03:33:26.404Z,1019.90
2018-12-06T03:34:26.421Z,1019.86
2018-12-06T03:35:26.443Z,1019.87
2018-12-06T03:36:26.466Z,1019.85
2018-12-06T03:37:26.490Z,1019.86
2018-12-06T03:38:26.507Z,1019.88
2018-12-06T03:39:26.533Z,1019.89
2018-12-06T03:40:26.549Z,1019.89
2018-12-06T03:41:26.587Z,1019.82
2018-12-06T03:42:26.592Z,1019.86
2018-12-06T03:43:26.621Z,1019.84
2018-12-06T03:44:26.637Z,1019.82
2018-12-06T03:45:26.658Z,1019.79
2018-12-06T03:46:26.684Z,1019.84
2018-12-06T03:47:26.706Z,1019.85
2018-12-06T03:48:26.719Z,1019.83
2018-12-06T03:49:26.746Z,1019.82
2018-12-06T03:50:26.763Z,1019.86
2018-12-06T03:51:26.784Z,1019.90
2018-12-06T03:52:26.806Z,1019.91
2018-12-06T03:53:26.830Z,1019.89
2018-12-06T03:54:26.907Z,1019.83
2018-12-06T03:55:26.870Z,1019.79
2018-12-06T03:56:26.893Z,1019.79
2018-12-06T03:57:26.915Z,1019.74
2018-12-06T03:58:26.951Z,1019.78
2018-12-06T03:59:26.960Z,1019.75
2018-12-06T04:00:26.980Z,1019.71
2018-12-06T04:01:27.086Z,1019.71
2018-12-06T04:02:27.017Z,1019.73
2018-12-06T04:03:27.045Z,1019.70
2018-12-06T04:04:27.062Z,1019.79
2018-12-06T04:05:27.085Z,1019.75
2018-12-06T04:06:27.107Z,1019.78
2018-12-06T04:07:27.127Z,1019.78
2018-12-06T04:08:27.150Z,1019.70
2018-12-06T04:09:27.201Z,1019.74
2018-12-06T04:10:27.192Z,1019.71
2018-12-06T04:11:27.211Z,1019.75
2018-12-06T04:12:27.238Z,1019.74
2018-12-06T04:13:27.256Z,1019.69
2018-12-06T04:14:27.280Z,1019.65
2018-12-06T04:15:27.297Z,1019.63
2018-12-06T04:16:27.321Z,1019.65
2018-12-06T04:17:27.345Z,1019.63
2018-12-06T04:18:27.367Z,1019.57
2018-12-06T04:19:27.386Z,1019.61
2018-12-06T04:20:27.414Z,1019.55
2018-12-06T04:21:27.429Z,1019.57
2018-12-06T04:22:27.452Z,1019.56
2018-12-06T04:23:27.469Z,1019.57
2018-12-06T04:24:27.491Z,1019.54
2018-12-06T04:25:27.518Z,1019.58
2018-12-06T04:26:27.542Z,1019.54
2018-12-06T04:27:27.560Z,1019.58
2018-12-06T04:28:27.578Z,1019.58
2018-12-06T04:29:27.602Z,1019.58
2018-12-06T04:30:27.625Z,1019.59
2018-12-06T04:31:27.643Z,1019.58
2018-12-06T04:32:27.668Z,1019.60
2018-12-06T04:33:27.684Z,1019.58
2018-12-06T04:34:27.706Z,1019.57
2018-12-06T04:35:27.730Z,1019.62
2018-12-06T04:36:27.749Z,1019.58
2018-12-06T04:37:27.769Z,1019.63
2018-12-06T04:38:27.790Z,1019.60
2018-12-06T04:39:27.814Z,1019.60
2018-12-06T04:40:27.835Z,1019.58
2018-12-06T04:41:27.855Z,1019.64
2018-12-06T04:42:27.877Z,1019.60
2018-12-06T04:43:27.899Z,1019.60
2018-12-06T04:44:27.922Z,1019.66
2018-12-06T04:45:27.945Z,1019.61
2018-12-06T04:46:27.961Z,1019.63
2018-12-06T04:47:27.984Z,1019.65
2018-12-06T04:48:28.012Z,1019.64
2018-12-06T04:49:28.030Z,1019.61
2018-12-06T04:50:28.050Z,1019.64
2018-12-06T04:51:28.070Z,1019.65
2018-12-06T04:52:28.096Z,1019.63
2018-12-06T04:53:28.112Z,1019.67
2018-12-06T04:54:28.134Z,1019.62
2018-12-06T04:55:28.161Z,1019.66
2018-12-06T04:56:28.177Z,1019.67
2018-12-06T04:57:28.198Z,1019.61
2018-12-06T04:58:28.221Z,1019.63
2018-12-06T04:59:28.242Z,1019.68
2018-12-06T05:00:28.264Z,1019.64
2018-12-06T05:01:28.288Z,1019.63
2018-12-06T05:02:28.306Z,1019.61
2018-12-06T05:03:28.327Z,1019.61
2018-12-06T05:04:28.352Z,1019.63
2018-12-06T05:05:28.373Z,1019.61
2018-12-06T05:06:28.395Z,1019.65
2018-12-06T05:07:28.414Z,1019.64
2018-12-06T05:08:28.439Z,1019.67
2018-12-06T05:09:28.458Z,1019.65
2018-12-06T05:10:28.478Z,1019.66
2018-12-06T05:11:28.501Z,1019.64
2018-12-06T05:12:28.521Z,1019.62
2018-12-06T05:13:28.548Z,1019.69
2018-12-06T05:14:28.567Z,1019.72
2018-12-06T05:15:28.584Z,1019.73
2018-12-06T05:16:28.605Z,1019.67
2018-12-06T05:17:28.631Z,1019.73
2018-12-06T05:18:28.654Z,1019.73
2018-12-06T05:19:28.671Z,1019.73
2018-12-06T05:20:28.692Z,1019.75
2018-12-06T05:21:28.714Z,1019.71
2018-12-06T05:22:28.734Z,1019.73
2018-12-06T05:23:28.757Z,1019.78
2018-12-06T05:24:28.781Z,1019.74
2018-12-06T05:25:28.799Z,1019.79
2018-12-06T05:26:28.824Z,1019.78
2018-12-06T05:27:28.843Z,1019.81
2018-12-06T05:28:28.866Z,1019.81
2018-12-06T05:29:28.885Z,1019.82
2018-12-06T05:30:28.905Z,1019.76
2018-12-06T05:31:28.929Z,1019.76
2018-12-06T05:32:28.952Z,1019.77
2018-12-06T05:33:28.971Z,1019.74
2018-12-06T05:34:28.992Z,1019.74
2018-12-06T05:35:29.014Z,1019.70
2018-12-06T05:36:29.035Z,1019.66
2018-12-06T05:37:29.057Z,1019.68
2018-12-06T05:38:29.081Z,1019.69
2018-12-06T05:39:29.100Z,1019.69
2018-12-06T05:40:29.122Z,1019.64
2018-12-06T05:41:29.143Z,1019.67
2018-12-06T05:42:29.165Z,1019.63
2018-12-06T05:43:29.189Z,1019.60
2018-12-06T05:44:29.211Z,1019.64
2018-12-06T05:45:29.232Z,1019.66
2018-12-06T05:46:29.253Z,1019.67
2018-12-06T05:47:29.272Z,1019.65
2018-12-06T05:48:29.296Z,1019.68
2018-12-06T05:49:29.316Z,1019.73
2018-12-06T05:50:29.338Z,1019.74
2018-12-06T05:51:29.358Z,1019.77
2018-12-06T05:52:29.387Z,1019.74
2018-12-06T05:53:29.406Z,1019.76
2018-12-06T05:54:29.422Z,1019.77
2018-12-06T05:55:29.447Z,1019.73
2018-12-06T05:56:29.468Z,1019.74
2018-12-06T18:11:46.958Z,1017.83
2018-12-06T18:12:46.834Z,1017.85
2018-12-06T18:13:46.854Z,1017.83
2018-12-06T18:14:46.879Z,1017.84
2018-12-06T18:15:46.905Z,1017.85
2018-12-06T18:16:46.927Z,1017.89
2018-12-06T18:17:46.956Z,1017.84
2018-12-06T18:18:46.974Z,1017.89
2018-12-06T18:19:46.998Z,1017.88
2018-12-06T18:20:47.020Z,1017.86
2018-12-06T18:21:47.045Z,1017.91
2018-12-06T18:22:47.072Z,1017.87
2018-12-06T18:23:47.093Z,1017.88
2018-12-06T18:24:47.117Z,1017.84
2018-12-06T18:25:47.143Z,1017.78
2018-12-06T18:26:47.164Z,1017.82
2018-12-06T18:27:47.189Z,1017.78
2018-12-06T18:28:47.216Z,1017.78
2018-12-06T18:29:47.236Z,1017.83
2018-12-06T18:30:47.260Z,1017.79
2018-12-06T18:31:47.283Z,1017.81
2018-12-06T18:32:47.307Z,1017.80
2018-12-06T18:33:47.335Z,1017.82
2018-12-06T18:34:47.440Z,1017.81
2018-12-06T20:48:50.518Z,1016.68
2018-12-06T20:49:50.542Z,1016.67
2018-12-06T20:50:50.567Z,1016.61
2018-12-06T20:51:50.591Z,1016.65
2018-12-06T20:52:50.614Z,1016.69
2018-12-06T20:53:50.635Z,1016.64
2018-12-06T20:54:50.658Z,1016.66
2018-12-06T20:55:50.683Z,1016.61
2018-12-06T20:56:50.705Z,1016.65
2018-12-06T20:57:50.727Z,1016.59
2018-12-06T20:58:50.749Z,1016.65
2018-12-06T20:59:50.774Z,1016.58
2018-12-06T21:00:50.798Z,1016.58
2018-12-06T21:01:50.819Z,1016.60
2018-12-06T21:02:50.845Z,1016.57
2018-12-06T21:03:50.866Z,1016.54
2018-12-06T21:04:50.888Z,1016.52
2018-12-06T21:05:50.913Z,1016.58
2018-12-06T21:06:50.934Z,1016.48
2018-12-06T21:07:50.958Z,1016.48
2018-12-06T21:08:50.980Z,1016.52
2018-12-06T21:09:51.003Z,1016.47
2018-12-06T21:10:51.026Z,1016.45
2018-12-06T21:11:51.049Z,1016.45
2018-12-06T21:12:51.072Z,1016.44
2018-12-06T21:13:51.094Z,1016.45
2018-12-06T21:14:51.118Z,1016.46
2018-12-06T21:15:51.140Z,1016.46
2018-12-06T21:16:51.165Z,1016.47
2018-12-06T21:17:51.196Z,1016.45
2018-12-06T21:18:51.209Z,1016.47
2018-12-06T21:19:51.233Z,1016.47
2018-12-06T21:20:51.256Z,1016.45
2018-12-06T21:21:51.279Z,1016.47
2018-12-06T21:22:51.300Z,1016.42
2018-12-06T21:23:51.324Z,1016.45
2018-12-06T21:24:51.347Z,1016.36
2018-12-06T21:25:51.370Z,1016.34
2018-12-06T21:26:51.392Z,1016.32
2018-12-06T21:27:51.415Z,1016.38
2018-12-06T21:28:51.441Z,1016.39
2018-12-06T21:29:51.463Z,1016.32
2018-12-06T21:30:51.482Z,1016.34
2018-12-06T21:31:51.510Z,1016.29
2018-12-06T21:32:51.532Z,1016.30
2018-12-06T21:33:51.554Z,1016.33
2018-12-06T21:34:51.574Z,1016.36
2018-12-06T21:35:51.596Z,1016.26
2018-12-06T21:36:51.621Z,1016.27
2018-12-06T21:37:51.645Z,1016.26
2018-12-06T21:38:51.668Z,1016.25
2018-12-06T21:39:51.689Z,1016.25
2018-12-06T21:40:51.716Z,1016.19
2018-12-06T21:41:51.738Z,1016.19
2018-12-06T21:42:51.758Z,1016.15
2018-12-06T21:43:51.780Z,1016.17
2018-12-06T21:44:51.806Z,1016.11
2018-12-06T21:45:51.827Z,1016.11
2018-12-06T21:46:51.849Z,1016.09
2018-12-06T21:47:51.870Z,1016.05
2018-12-06T21:48:51.894Z,1016.05
2018-12-06T21:49:51.920Z,1016.06
2018-12-06T21:50:51.938Z,1016.03
2018-12-06T21:51:51.961Z,1015.98
2018-12-06T21:52:51.986Z,1015.91
2018-12-06T21:53:52.007Z,1015.93
2018-12-06T21:54:52.030Z,1015.90
2018-12-06T21:55:52.053Z,1015.93
2018-12-06T21:56:52.080Z,1015.85
2018-12-06T21:57:52.099Z,1015.82
2018-12-06T21:58:52.122Z,1015.79
2018-12-06T21:59:52.178Z,1015.75
2018-12-06T22:00:52.174Z,1015.81
2018-12-06T22:01:52.191Z,1015.78
2018-12-06T22:02:52.213Z,1015.74
2018-12-06T22:03:52.237Z,1015.69
2018-12-06T22:04:52.256Z,1015.69
2018-12-06T22:05:52.281Z,1015.69
2018-12-06T22:06:52.305Z,1015.65
2018-12-06T22:07:52.325Z,1015.63
2018-12-06T22:08:52.346Z,1015.65
2018-12-06T22:09:52.376Z,1015.60
2018-12-06T22:10:52.396Z,1015.61
2018-12-06T22:11:52.419Z,1015.65
2018-12-06T22:12:52.442Z,1015.62
2018-12-06T22:13:52.465Z,1015.62
2018-12-06T22:14:52.482Z,1015.61
2018-12-06T22:15:52.509Z,1015.57
2018-12-06T22:16:52.535Z,1015.58
2018-12-06T22:17:52.552Z,1015.61
2018-12-06T22:18:52.573Z,1015.55
2018-12-06T22:19:52.601Z,1015.60
2018-12-06T22:20:52.623Z,1015.59
2018-12-06T22:21:52.643Z,1015.52
2018-12-06T22:22:52.664Z,1015.53
2018-12-06T22:23:52.691Z,1015.52
2018-12-06T22:24:52.710Z,1015.47
2018-12-06T22:25:52.732Z,1015.47
2018-12-06T22:26:52.754Z,1015.47
2018-12-06T22:27:52.777Z,1015.45
2018-12-06T22:28:52.800Z,1015.41
2018-12-06T22:29:52.823Z,1015.39
2018-12-06T22:30:52.848Z,1015.40
2018-12-06T22:31:52.868Z,1015.42
2018-12-06T22:32:52.891Z,1015.40
2018-12-06T22:33:52.914Z,1015.39
2018-12-06T22:34:52.937Z,1015.42
2018-12-06T22:35:52.958Z,1015.40
2018-12-06T22:36:52.980Z,1015.38
2018-12-06T22:37:53.004Z,1015.34
2018-12-06T22:38:53.027Z,1015.36
2018-12-06T22:39:53.048Z,1015.34
2018-12-06T22:40:53.072Z,1015.34
2018-12-06T22:41:53.093Z,1015.29
2018-12-06T22:42:53.116Z,1015.31
2018-12-06T22:43:53.140Z,1015.29
2018-12-06T22:44:53.162Z,1015.25
2018-12-06T22:45:53.185Z,1015.23
2018-12-06T22:46:53.209Z,1015.19
2018-12-06T22:47:53.228Z,1015.17
2018-12-06T22:48:53.256Z,1015.13
2018-12-06T22:49:53.275Z,1015.07
2018-12-06T22:50:53.295Z,1015.08
2018-12-06T22:51:53.318Z,1015.01
2018-12-06T22:52:53.342Z,1014.90
2018-12-06T22:53:53.363Z,1014.91
2018-12-06T22:54:53.385Z,1014.92
2018-12-06T22:55:53.409Z,1014.89
2018-12-06T22:56:53.437Z,1014.87
2018-12-06T22:57:53.454Z,1014.92
2018-12-06T22:58:53.475Z,1014.91
2018-12-06T22:59:53.568Z,1014.90
2018-12-06T23:00:53.524Z,1014.91
2018-12-06T23:01:53.549Z,1014.88
2018-12-06T23:02:53.566Z,1014.85
2018-12-06T23:03:53.588Z,1014.81
2018-12-06T23:04:53.611Z,1014.76
2018-12-06T23:05:53.638Z,1014.76
2018-12-06T23:06:53.655Z,1014.78
2018-12-06T23:07:53.679Z,1014.80
2018-12-06T23:08:53.704Z,1014.81
2018-12-06T23:09:53.725Z,1014.75
2018-12-06T23:10:53.746Z,1014.77
2018-12-06T23:11:53.768Z,1014.67
2018-12-06T23:12:53.791Z,1014.74
2018-12-06T23:13:53.812Z,1014.68
2018-12-06T23:14:53.838Z,1014.72
2018-12-06T23:15:53.860Z,1014.68
2018-12-06T23:16:53.883Z,1014.63
2018-12-06T23:17:53.902Z,1014.55
2018-12-06T23:18:53.924Z,1014.58
2018-12-06T23:19:53.948Z,1014.60
2018-12-06T23:20:53.969Z,1014.61
2018-12-06T23:21:53.992Z,1014.61
2018-12-06T23:22:54.017Z,1014.56
2018-12-06T23:23:54.043Z,1014.59
2018-12-06T23:24:54.058Z,1014.54
2018-12-06T23:25:54.086Z,1014.53
2018-12-06T23:26:54.103Z,1014.49
2018-12-06T23:27:54.128Z,1014.40
2018-12-06T23:28:54.148Z,1014.36
2018-12-06T23:29:54.172Z,1014.36
2018-12-06T23:30:54.195Z,1014.31
2018-12-06T23:31:54.218Z,1014.34
2018-12-06T23:32:54.237Z,1014.29
2018-12-06T23:33:54.260Z,1014.21
2018-12-06T23:34:54.286Z,1014.17
2018-12-06T23:35:54.305Z,1014.20
2018-12-06T23:36:54.327Z,1014.14
2018-12-06T23:37:54.353Z,1014.14
2018-12-06T23:38:54.371Z,1014.10
2018-12-06T23:39:54.399Z,1014.05
2018-12-06T23:40:54.416Z,1014.03
2018-12-06T23:41:54.440Z,1013.98
2018-12-06T23:42:54.462Z,1013.99
2018-12-06T23:43:54.484Z,1013.95
2018-12-06T23:44:54.507Z,1013.92
2018-12-06T23:45:54.533Z,1013.93
2018-12-06T23:46:54.549Z,1013.88
2018-12-06T23:47:54.572Z,1013.89
2018-12-06T23:48:54.600Z,1013.86
2018-12-06T23:49:54.618Z,1013.88
2018-12-06T23:50:54.641Z,1013.90
2018-12-06T23:51:54.661Z,1013.88
2018-12-06T23:52:54.683Z,1013.85
2018-12-06T23:53:54.706Z,1013.78
2018-12-06T23:54:54.730Z,1013.80
2018-12-06T23:55:54.754Z,1013.80
2018-12-06T23:56:54.772Z,1013.73
2018-12-06T23:57:54.793Z,1013.75
2018-12-06T23:58:54.816Z,1013.80
2018-12-06T23:59:54.838Z,1013.74
